sensor_id;sensor_type;location;lat;lon;timestamp;P1;durP1;ratioP1;P2;durP2;ratioP2
16440;SDS011;8330;-33.858;151.184;2022-12-07T00:00:23;10.68;;;2.70;;
16440;SDS011;8330;-33.858;151.184;2022-12-07T00:02:55;9.88;;;2.70;;
16440;SDS011;8330;-33.858;151.184;2022-12-07T00:05:25;11.00;;;3.25;;
16440;SDS011;8330;-33.858;151.184;2022-12-07T00:07:58;35.53;;;5.35;;
16440;SDS011;8330;-33.858;151.184;2022-12-07T00:10:29;9.80;;;2.67;;
16440;SDS011;8330;-33.858;151.184;2022-12-07T00:13:03;6.95;;;2.58;;
16440;SDS011;8330;-33.858;151.184;2022-12-07T00:15:34;9.27;;;2.50;;
16440;SDS011;8330;-33.858;151.184;2022-12-07T00:18:05;8.45;;;2.88;;
16440;SDS011;8330;-33.858;151.184;2022-12-07T00:20:36;15.27;;;2.70;;
16440;SDS011;8330;-33.858;151.184;2022-12-07T00:23:06;10.82;;;3.22;;
16440;SDS011;8330;-33.858;151.184;2022-12-07T00:25:37;11.82;;;3.25;;
16440;SDS011;8330;-33.858;151.184;2022-12-07T00:28:10;14.65;;;3.50;;
16440;SDS011;8330;-33.858;151.184;2022-12-07T00:30:41;14.13;;;3.00;;
16440;SDS011;8330;-33.858;151.184;2022-12-07T00:33:12;10.45;;;2.47;;
16440;SDS011;8330;-33.858;151.184;2022-12-07T00:35:42;13.77;;;2.42;;
16440;SDS011;8330;-33.858;151.184;2022-12-07T00:38:13;11.73;;;2.55;;
16440;SDS011;8330;-33.858;151.184;2022-12-07T00:40:44;10.05;;;2.78;;
16440;SDS011;8330;-33.858;151.184;2022-12-07T00:43:27;6.32;;;2.10;;
16440;SDS011;8330;-33.858;151.184;2022-12-07T00:45:58;7.75;;;2.40;;
16440;SDS011;8330;-33.858;151.184;2022-12-07T00:48:30;8.30;;;2.55;;
16440;SDS011;8330;-33.858;151.184;2022-12-07T00:51:01;9.52;;;2.60;;
16440;SDS011;8330;-33.858;151.184;2022-12-07T00:53:34;6.60;;;2.38;;
16440;SDS011;8330;-33.858;151.184;2022-12-07T00:56:06;8.75;;;2.63;;
16440;SDS011;8330;-33.858;151.184;2022-12-07T00:58:38;14.55;;;3.42;;
16440;SDS011;8330;-33.858;151.184;2022-12-07T01:01:10;11.57;;;2.83;;
16440;SDS011;8330;-33.858;151.184;2022-12-07T01:03:41;11.23;;;2.35;;
16440;SDS011;8330;-33.858;151.184;2022-12-07T01:06:14;15.80;;;2.50;;
16440;SDS011;8330;-33.858;151.184;2022-12-07T01:08:45;14.00;;;2.65;;
16440;SDS011;8330;-33.858;151.184;2022-12-07T01:11:16;7.60;;;2.30;;
16440;SDS011;8330;-33.858;151.184;2022-12-07T01:13:51;14.60;;;2.63;;
16440;SDS011;8330;-33.858;151.184;2022-12-07T01:16:23;9.80;;;2.33;;
16440;SDS011;8330;-33.858;151.184;2022-12-07T01:18:56;5.47;;;2.00;;
16440;SDS011;8330;-33.858;151.184;2022-12-07T01:21:28;6.72;;;2.10;;
16440;SDS011;8330;-33.858;151.184;2022-12-07T01:24:03;7.07;;;2.20;;
16440;SDS011;8330;-33.858;151.184;2022-12-07T01:26:35;10.02;;;2.10;;
16440;SDS011;8330;-33.858;151.184;2022-12-07T01:29:08;8.82;;;2.40;;
16440;SDS011;8330;-33.858;151.184;2022-12-07T01:31:38;6.95;;;2.08;;
16440;SDS011;8330;-33.858;151.184;2022-12-07T01:34:09;9.95;;;2.30;;
16440;SDS011;8330;-33.858;151.184;2022-12-07T01:36:40;9.43;;;2.60;;
16440;SDS011;8330;-33.858;151.184;2022-12-07T01:39:11;8.25;;;2.80;;
16440;SDS011;8330;-33.858;151.184;2022-12-07T01:41:42;8.68;;;2.20;;
16440;SDS011;8330;-33.858;151.184;2022-12-07T01:44:16;6.00;;;2.13;;
16440;SDS011;8330;-33.858;151.184;2022-12-07T01:46:49;9.48;;;2.33;;
16440;SDS011;8330;-33.858;151.184;2022-12-07T01:49:23;8.82;;;2.42;;
16440;SDS011;8330;-33.858;151.184;2022-12-07T01:51:58;8.10;;;2.70;;
16440;SDS011;8330;-33.858;151.184;2022-12-07T01:54:34;8.45;;;3.10;;
16440;SDS011;8330;-33.858;151.184;2022-12-07T01:57:06;17.23;;;3.67;;
16440;SDS011;8330;-33.858;151.184;2022-12-07T01:59:41;9.90;;;3.28;;
16440;SDS011;8330;-33.858;151.184;2022-12-07T02:02:17;8.93;;;3.38;;
16440;SDS011;8330;-33.858;151.184;2022-12-07T02:04:51;10.68;;;3.60;;
16440;SDS011;8330;-33.858;151.184;2022-12-07T02:07:25;8.85;;;3.30;;
16440;SDS011;8330;-33.858;151.184;2022-12-07T02:09:57;9.15;;;2.97;;
16440;SDS011;8330;-33.858;151.184;2022-12-07T02:12:41;9.52;;;3.30;;
16440;SDS011;8330;-33.858;151.184;2022-12-07T02:15:15;11.40;;;3.75;;
16440;SDS011;8330;-33.858;151.184;2022-12-07T02:17:49;9.77;;;3.88;;
16440;SDS011;8330;-33.858;151.184;2022-12-07T02:20:27;9.27;;;3.50;;
16440;SDS011;8330;-33.858;151.184;2022-12-07T02:23:04;10.05;;;3.03;;
16440;SDS011;8330;-33.858;151.184;2022-12-07T02:29:16;9.35;;;2.83;;
16440;SDS011;8330;-33.858;151.184;2022-12-07T02:31:53;9.63;;;2.85;;
16440;SDS011;8330;-33.858;151.184;2022-12-07T02:34:31;9.57;;;2.95;;
16440;SDS011;8330;-33.858;151.184;2022-12-07T02:37:08;7.95;;;3.13;;
16440;SDS011;8330;-33.858;151.184;2022-12-07T02:39:45;11.85;;;3.30;;
16440;SDS011;8330;-33.858;151.184;2022-12-07T02:42:22;8.18;;;2.72;;
16440;SDS011;8330;-33.858;151.184;2022-12-07T02:44:59;10.65;;;2.67;;
16440;SDS011;8330;-33.858;151.184;2022-12-07T02:47:34;8.73;;;3.28;;
16440;SDS011;8330;-33.858;151.184;2022-12-07T02:50:06;10.68;;;3.22;;
16440;SDS011;8330;-33.858;151.184;2022-12-07T02:52:38;14.10;;;3.95;;
16440;SDS011;8330;-33.858;151.184;2022-12-07T02:55:09;11.25;;;3.22;;
16440;SDS011;8330;-33.858;151.184;2022-12-07T02:57:48;13.35;;;3.58;;
16440;SDS011;8330;-33.858;151.184;2022-12-07T03:00:35;16.20;;;4.15;;
16440;SDS011;8330;-33.858;151.184;2022-12-07T03:03:12;7.60;;;3.08;;
16440;SDS011;8330;-33.858;151.184;2022-12-07T03:08:38;8.45;;;2.78;;
16440;SDS011;8330;-33.858;151.184;2022-12-07T03:11:16;9.95;;;3.30;;
16440;SDS011;8330;-33.858;151.184;2022-12-07T03:13:56;11.02;;;3.67;;
16440;SDS011;8330;-33.858;151.184;2022-12-07T03:16:35;6.63;;;3.00;;
16440;SDS011;8330;-33.858;151.184;2022-12-07T03:19:11;13.07;;;3.92;;
16440;SDS011;8330;-33.858;151.184;2022-12-07T03:21:46;11.35;;;3.58;;
16440;SDS011;8330;-33.858;151.184;2022-12-07T03:24:22;13.55;;;3.60;;
16440;SDS011;8330;-33.858;151.184;2022-12-07T03:26:58;11.38;;;2.92;;
16440;SDS011;8330;-33.858;151.184;2022-12-07T03:29:34;13.27;;;3.38;;
16440;SDS011;8330;-33.858;151.184;2022-12-07T03:32:08;10.48;;;3.38;;
16440;SDS011;8330;-33.858;151.184;2022-12-07T03:34:46;12.63;;;3.03;;
16440;SDS011;8330;-33.858;151.184;2022-12-07T03:37:22;11.25;;;3.58;;
16440;SDS011;8330;-33.858;151.184;2022-12-07T03:40:00;9.68;;;3.33;;
16440;SDS011;8330;-33.858;151.184;2022-12-07T03:42:36;9.52;;;3.15;;
16440;SDS011;8330;-33.858;151.184;2022-12-07T03:45:07;9.23;;;3.30;;
16440;SDS011;8330;-33.858;151.184;2022-12-07T03:47:42;13.10;;;3.72;;
16440;SDS011;8330;-33.858;151.184;2022-12-07T03:50:21;12.00;;;3.00;;
16440;SDS011;8330;-33.858;151.184;2022-12-07T03:52:58;10.10;;;3.30;;
16440;SDS011;8330;-33.858;151.184;2022-12-07T03:55:34;11.65;;;3.13;;
16440;SDS011;8330;-33.858;151.184;2022-12-07T03:58:09;8.57;;;2.63;;
16440;SDS011;8330;-33.858;151.184;2022-12-07T04:00:45;8.38;;;3.15;;
16440;SDS011;8330;-33.858;151.184;2022-12-07T04:03:17;9.10;;;2.78;;
16440;SDS011;8330;-33.858;151.184;2022-12-07T04:05:48;8.52;;;2.90;;
16440;SDS011;8330;-33.858;151.184;2022-12-07T04:08:19;10.43;;;3.13;;
16440;SDS011;8330;-33.858;151.184;2022-12-07T04:10:50;11.05;;;3.13;;
16440;SDS011;8330;-33.858;151.184;2022-12-07T04:13:21;9.70;;;2.65;;
16440;SDS011;8330;-33.858;151.184;2022-12-07T04:15:52;10.13;;;2.90;;
16440;SDS011;8330;-33.858;151.184;2022-12-07T04:18:25;7.10;;;2.55;;
16440;SDS011;8330;-33.858;151.184;2022-12-07T04:20:56;6.75;;;2.70;;
16440;SDS011;8330;-33.858;151.184;2022-12-07T04:23:29;13.13;;;2.90;;
16440;SDS011;8330;-33.858;151.184;2022-12-07T04:26:01;7.28;;;2.55;;
16440;SDS011;8330;-33.858;151.184;2022-12-07T04:28:31;7.45;;;2.28;;
16440;SDS011;8330;-33.858;151.184;2022-12-07T04:31:02;11.07;;;2.58;;
16440;SDS011;8330;-33.858;151.184;2022-12-07T04:33:37;11.68;;;3.22;;
16440;SDS011;8330;-33.858;151.184;2022-12-07T04:36:08;8.20;;;2.60;;
16440;SDS011;8330;-33.858;151.184;2022-12-07T04:38:39;6.18;;;2.22;;
16440;SDS011;8330;-33.858;151.184;2022-12-07T04:41:09;9.05;;;2.00;;
16440;SDS011;8330;-33.858;151.184;2022-12-07T04:43:41;2.83;;;0.88;;
16440;SDS011;8330;-33.858;151.184;2022-12-07T04:46:12;1.17;;;0.43;;
16440;SDS011;8330;-33.858;151.184;2022-12-07T04:48:45;1.60;;;0.50;;
16440;SDS011;8330;-33.858;151.184;2022-12-07T04:51:18;0.55;;;0.40;;
16440;SDS011;8330;-33.858;151.184;2022-12-07T04:53:50;6.13;;;0.60;;
16440;SDS011;8330;-33.858;151.184;2022-12-07T04:56:22;1.75;;;0.50;;
16440;SDS011;8330;-33.858;151.184;2022-12-07T04:58:54;3.05;;;0.50;;
16440;SDS011;8330;-33.858;151.184;2022-12-07T05:01:26;1.17;;;0.50;;
16440;SDS011;8330;-33.858;151.184;2022-12-07T05:04:00;5.80;;;0.70;;
16440;SDS011;8330;-33.858;151.184;2022-12-07T05:06:32;2.63;;;0.60;;
16440;SDS011;8330;-33.858;151.184;2022-12-07T05:09:02;5.20;;;0.68;;
16440;SDS011;8330;-33.858;151.184;2022-12-07T05:11:33;1.52;;;0.50;;
16440;SDS011;8330;-33.858;151.184;2022-12-07T05:14:09;3.95;;;0.57;;
16440;SDS011;8330;-33.858;151.184;2022-12-07T05:16:41;5.40;;;0.60;;
16440;SDS011;8330;-33.858;151.184;2022-12-07T05:19:15;2.28;;;0.50;;
16440;SDS011;8330;-33.858;151.184;2022-12-07T05:21:47;2.92;;;0.65;;
16440;SDS011;8330;-33.858;151.184;2022-12-07T05:24:18;1.20;;;0.47;;
16440;SDS011;8330;-33.858;151.184;2022-12-07T05:26:49;1.50;;;0.57;;
16440;SDS011;8330;-33.858;151.184;2022-12-07T05:29:20;0.88;;;0.50;;
16440;SDS011;8330;-33.858;151.184;2022-12-07T05:31:51;4.35;;;1.10;;
16440;SDS011;8330;-33.858;151.184;2022-12-07T05:34:23;3.13;;;0.40;;
16440;SDS011;8330;-33.858;151.184;2022-12-07T05:36:54;1.38;;;0.50;;
16440;SDS011;8330;-33.858;151.184;2022-12-07T05:39:25;1.65;;;0.68;;
16440;SDS011;8330;-33.858;151.184;2022-12-07T05:41:56;1.85;;;0.70;;
16440;SDS011;8330;-33.858;151.184;2022-12-07T05:44:42;1.90;;;0.32;;
16440;SDS011;8330;-33.858;151.184;2022-12-07T05:47:15;3.90;;;0.60;;
16440;SDS011;8330;-33.858;151.184;2022-12-07T05:49:49;3.90;;;0.70;;
16440;SDS011;8330;-33.858;151.184;2022-12-07T05:52:20;2.13;;;0.47;;
16440;SDS011;8330;-33.858;151.184;2022-12-07T05:54:52;1.63;;;0.65;;
16440;SDS011;8330;-33.858;151.184;2022-12-07T05:57:23;1.73;;;0.50;;
16440;SDS011;8330;-33.858;151.184;2022-12-07T05:59:54;2.72;;;0.50;;
16440;SDS011;8330;-33.858;151.184;2022-12-07T06:02:23;1.52;;;0.60;;
16440;SDS011;8330;-33.858;151.184;2022-12-07T06:04:57;2.65;;;0.60;;
16440;SDS011;8330;-33.858;151.184;2022-12-07T06:07:27;2.25;;;0.50;;
16440;SDS011;8330;-33.858;151.184;2022-12-07T06:09:58;1.20;;;0.50;;
16440;SDS011;8330;-33.858;151.184;2022-12-07T06:12:29;2.58;;;0.50;;
16440;SDS011;8330;-33.858;151.184;2022-12-07T06:15:01;1.42;;;0.60;;
16440;SDS011;8330;-33.858;151.184;2022-12-07T06:17:33;1.83;;;0.50;;
16440;SDS011;8330;-33.858;151.184;2022-12-07T06:20:07;2.65;;;0.85;;
16440;SDS011;8330;-33.858;151.184;2022-12-07T06:22:38;1.95;;;0.70;;
16440;SDS011;8330;-33.858;151.184;2022-12-07T06:25:09;1.75;;;0.52;;
16440;SDS011;8330;-33.858;151.184;2022-12-07T06:27:40;1.92;;;0.52;;
16440;SDS011;8330;-33.858;151.184;2022-12-07T06:30:10;2.95;;;0.50;;
16440;SDS011;8330;-33.858;151.184;2022-12-07T06:32:41;2.67;;;0.55;;
16440;SDS011;8330;-33.858;151.184;2022-12-07T06:35:15;2.53;;;0.50;;
16440;SDS011;8330;-33.858;151.184;2022-12-07T06:37:45;2.53;;;0.45;;
16440;SDS011;8330;-33.858;151.184;2022-12-07T06:40:16;1.55;;;0.52;;
16440;SDS011;8330;-33.858;151.184;2022-12-07T06:42:47;1.67;;;0.40;;
16440;SDS011;8330;-33.858;151.184;2022-12-07T06:45:19;1.20;;;0.45;;
16440;SDS011;8330;-33.858;151.184;2022-12-07T06:47:50;1.73;;;0.50;;
16440;SDS011;8330;-33.858;151.184;2022-12-07T06:50:23;2.55;;;0.50;;
16440;SDS011;8330;-33.858;151.184;2022-12-07T06:52:56;2.10;;;0.60;;
16440;SDS011;8330;-33.858;151.184;2022-12-07T06:55:28;1.42;;;0.60;;
16440;SDS011;8330;-33.858;151.184;2022-12-07T06:57:58;1.92;;;0.68;;
16440;SDS011;8330;-33.858;151.184;2022-12-07T07:00:30;1.92;;;0.55;;
16440;SDS011;8330;-33.858;151.184;2022-12-07T07:03:01;2.30;;;0.55;;
16440;SDS011;8330;-33.858;151.184;2022-12-07T07:05:33;0.80;;;0.68;;
16440;SDS011;8330;-33.858;151.184;2022-12-07T07:08:05;2.63;;;0.70;;
16440;SDS011;8330;-33.858;151.184;2022-12-07T07:10:36;2.42;;;0.60;;
16440;SDS011;8330;-33.858;151.184;2022-12-07T07:13:07;0.75;;;0.45;;
16440;SDS011;8330;-33.858;151.184;2022-12-07T07:15:39;2.95;;;0.60;;
16440;SDS011;8330;-33.858;151.184;2022-12-07T07:18:10;1.38;;;0.40;;
16440;SDS011;8330;-33.858;151.184;2022-12-07T07:20:43;2.05;;;0.68;;
16440;SDS011;8330;-33.858;151.184;2022-12-07T07:23:14;2.50;;;0.50;;
16440;SDS011;8330;-33.858;151.184;2022-12-07T07:25:44;2.90;;;0.60;;
16440;SDS011;8330;-33.858;151.184;2022-12-07T07:28:16;2.28;;;0.57;;
16440;SDS011;8330;-33.858;151.184;2022-12-07T07:30:46;2.00;;;0.60;;
16440;SDS011;8330;-33.858;151.184;2022-12-07T07:33:17;0.68;;;0.50;;
16440;SDS011;8330;-33.858;151.184;2022-12-07T07:35:51;1.23;;;0.52;;
16440;SDS011;8330;-33.858;151.184;2022-12-07T07:38:22;1.67;;;0.50;;
16440;SDS011;8330;-33.858;151.184;2022-12-07T07:40:53;2.80;;;0.70;;
16440;SDS011;8330;-33.858;151.184;2022-12-07T07:43:24;3.60;;;0.45;;
16440;SDS011;8330;-33.858;151.184;2022-12-07T07:45:54;0.93;;;0.40;;
16440;SDS011;8330;-33.858;151.184;2022-12-07T07:48:25;0.90;;;0.45;;
16440;SDS011;8330;-33.858;151.184;2022-12-07T07:50:58;1.48;;;0.43;;
16440;SDS011;8330;-33.858;151.184;2022-12-07T07:53:29;0.57;;;0.40;;
16440;SDS011;8330;-33.858;151.184;2022-12-07T07:56:00;1.13;;;0.40;;
16440;SDS011;8330;-33.858;151.184;2022-12-07T07:58:31;0.30;;;0.30;;
16440;SDS011;8330;-33.858;151.184;2022-12-07T08:01:03;0.30;;;0.30;;
16440;SDS011;8330;-33.858;151.184;2022-12-07T08:03:35;0.32;;;0.28;;
16440;SDS011;8330;-33.858;151.184;2022-12-07T08:06:08;1.00;;;0.40;;
16440;SDS011;8330;-33.858;151.184;2022-12-07T08:08:39;2.08;;;0.45;;
16440;SDS011;8330;-33.858;151.184;2022-12-07T08:11:10;0.43;;;0.30;;
16440;SDS011;8330;-33.858;151.184;2022-12-07T08:13:41;3.20;;;0.60;;
16440;SDS011;8330;-33.858;151.184;2022-12-07T08:16:15;1.40;;;0.45;;
16440;SDS011;8330;-33.858;151.184;2022-12-07T08:18:46;0.80;;;0.50;;
16440;SDS011;8330;-33.858;151.184;2022-12-07T08:21:18;2.05;;;0.40;;
16440;SDS011;8330;-33.858;151.184;2022-12-07T08:23:49;1.50;;;0.28;;
16440;SDS011;8330;-33.858;151.184;2022-12-07T08:26:20;0.63;;;0.38;;
16440;SDS011;8330;-33.858;151.184;2022-12-07T08:28:52;0.80;;;0.40;;
16440;SDS011;8330;-33.858;151.184;2022-12-07T08:31:23;2.55;;;0.60;;
16440;SDS011;8330;-33.858;151.184;2022-12-07T08:33:55;0.77;;;0.50;;
16440;SDS011;8330;-33.858;151.184;2022-12-07T08:36:28;0.63;;;0.30;;
16440;SDS011;8330;-33.858;151.184;2022-12-07T08:38:59;0.70;;;0.40;;
16440;SDS011;8330;-33.858;151.184;2022-12-07T08:41:30;1.02;;;0.50;;
16440;SDS011;8330;-33.858;151.184;2022-12-07T08:44:01;0.50;;;0.40;;
16440;SDS011;8330;-33.858;151.184;2022-12-07T08:46:32;2.72;;;0.30;;
16440;SDS011;8330;-33.858;151.184;2022-12-07T08:49:08;1.23;;;0.40;;
16440;SDS011;8330;-33.858;151.184;2022-12-07T08:51:42;0.65;;;0.40;;
16440;SDS011;8330;-33.858;151.184;2022-12-07T08:54:14;3.03;;;0.50;;
16440;SDS011;8330;-33.858;151.184;2022-12-07T08:56:46;1.48;;;0.60;;
16440;SDS011;8330;-33.858;151.184;2022-12-07T08:59:19;0.60;;;0.60;;
16440;SDS011;8330;-33.858;151.184;2022-12-07T09:01:50;1.83;;;0.65;;
16440;SDS011;8330;-33.858;151.184;2022-12-07T09:04:21;0.77;;;0.50;;
16440;SDS011;8330;-33.858;151.184;2022-12-07T09:06:54;1.45;;;0.60;;
16440;SDS011;8330;-33.858;151.184;2022-12-07T09:09:25;1.63;;;0.80;;
16440;SDS011;8330;-33.858;151.184;2022-12-07T09:11:56;3.25;;;0.80;;
16440;SDS011;8330;-33.858;151.184;2022-12-07T09:14:27;1.55;;;0.60;;
16440;SDS011;8330;-33.858;151.184;2022-12-07T09:17:04;2.47;;;0.50;;
16440;SDS011;8330;-33.858;151.184;2022-12-07T09:19:36;1.25;;;0.55;;
16440;SDS011;8330;-33.858;151.184;2022-12-07T09:22:10;2.92;;;0.50;;
16440;SDS011;8330;-33.858;151.184;2022-12-07T09:24:41;1.33;;;0.55;;
16440;SDS011;8330;-33.858;151.184;2022-12-07T09:27:12;1.73;;;0.60;;
16440;SDS011;8330;-33.858;151.184;2022-12-07T09:29:44;1.13;;;0.38;;
16440;SDS011;8330;-33.858;151.184;2022-12-07T09:32:15;0.95;;;0.50;;
16440;SDS011;8330;-33.858;151.184;2022-12-07T09:34:49;1.25;;;0.60;;
16440;SDS011;8330;-33.858;151.184;2022-12-07T09:37:21;2.65;;;0.90;;
16440;SDS011;8330;-33.858;151.184;2022-12-07T09:39:52;2.05;;;0.93;;
16440;SDS011;8330;-33.858;151.184;2022-12-07T09:42:27;2.45;;;0.90;;
16440;SDS011;8330;-33.858;151.184;2022-12-07T09:45:02;2.30;;;1.30;;
16440;SDS011;8330;-33.858;151.184;2022-12-07T09:47:35;1.58;;;0.90;;
16440;SDS011;8330;-33.858;151.184;2022-12-07T09:50:07;2.75;;;0.90;;
16440;SDS011;8330;-33.858;151.184;2022-12-07T09:52:46;2.08;;;1.20;;
16440;SDS011;8330;-33.858;151.184;2022-12-07T09:55:19;2.88;;;1.10;;
16440;SDS011;8330;-33.858;151.184;2022-12-07T09:57:53;2.65;;;0.80;;
16440;SDS011;8330;-33.858;151.184;2022-12-07T10:00:24;1.02;;;0.68;;
16440;SDS011;8330;-33.858;151.184;2022-12-07T10:02:56;0.80;;;0.80;;
16440;SDS011;8330;-33.858;151.184;2022-12-07T10:05:28;1.50;;;0.95;;
16440;SDS011;8330;-33.858;151.184;2022-12-07T10:08:05;1.45;;;0.90;;
16440;SDS011;8330;-33.858;151.184;2022-12-07T10:10:37;1.52;;;0.60;;
16440;SDS011;8330;-33.858;151.184;2022-12-07T10:13:08;0.77;;;0.50;;
16440;SDS011;8330;-33.858;151.184;2022-12-07T10:15:44;1.83;;;0.60;;
16440;SDS011;8330;-33.858;151.184;2022-12-07T10:18:21;1.30;;;0.57;;
16440;SDS011;8330;-33.858;151.184;2022-12-07T10:21:04;1.60;;;0.68;;
16440;SDS011;8330;-33.858;151.184;2022-12-07T10:23:42;1.85;;;0.60;;
16440;SDS011;8330;-33.858;151.184;2022-12-07T10:26:32;2.38;;;0.50;;
16440;SDS011;8330;-33.858;151.184;2022-12-07T10:29:14;0.52;;;0.52;;
16440;SDS011;8330;-33.858;151.184;2022-12-07T10:31:53;0.93;;;0.57;;
16440;SDS011;8330;-33.858;151.184;2022-12-07T10:34:26;1.30;;;0.50;;
16440;SDS011;8330;-33.858;151.184;2022-12-07T10:37:14;1.23;;;0.60;;
16440;SDS011;8330;-33.858;151.184;2022-12-07T10:39:48;1.17;;;0.70;;
16440;SDS011;8330;-33.858;151.184;2022-12-07T10:42:20;0.73;;;0.50;;
16440;SDS011;8330;-33.858;151.184;2022-12-07T10:45:07;1.20;;;0.60;;
16440;SDS011;8330;-33.858;151.184;2022-12-07T10:47:39;2.17;;;0.73;;
16440;SDS011;8330;-33.858;151.184;2022-12-07T10:56:13;2.70;;;0.70;;
16440;SDS011;8330;-33.858;151.184;2022-12-07T10:59:02;1.85;;;0.63;;
16440;SDS011;8330;-33.858;151.184;2022-12-07T11:01:49;0.88;;;0.40;;
16440;SDS011;8330;-33.858;151.184;2022-12-07T11:04:25;1.10;;;0.60;;
16440;SDS011;8330;-33.858;151.184;2022-12-07T11:07:04;1.33;;;0.60;;
16440;SDS011;8330;-33.858;151.184;2022-12-07T11:12:47;0.98;;;0.60;;
16440;SDS011;8330;-33.858;151.184;2022-12-07T11:15:29;1.55;;;0.40;;
16440;SDS011;8330;-33.858;151.184;2022-12-07T11:18:12;1.30;;;0.50;;
16440;SDS011;8330;-33.858;151.184;2022-12-07T11:20:52;1.10;;;0.40;;
16440;SDS011;8330;-33.858;151.184;2022-12-07T11:23:32;1.10;;;0.50;;
16440;SDS011;8330;-33.858;151.184;2022-12-07T11:26:13;0.75;;;0.40;;
16440;SDS011;8330;-33.858;151.184;2022-12-07T11:29:02;1.25;;;0.50;;
16440;SDS011;8330;-33.858;151.184;2022-12-07T11:31:49;1.42;;;0.60;;
16440;SDS011;8330;-33.858;151.184;2022-12-07T11:34:37;1.15;;;0.60;;
16440;SDS011;8330;-33.858;151.184;2022-12-07T11:37:16;1.00;;;0.52;;
16440;SDS011;8330;-33.858;151.184;2022-12-07T11:39:50;2.45;;;0.60;;
16440;SDS011;8330;-33.858;151.184;2022-12-07T11:42:24;3.10;;;0.80;;
16440;SDS011;8330;-33.858;151.184;2022-12-07T11:45:00;1.80;;;0.70;;
16440;SDS011;8330;-33.858;151.184;2022-12-07T11:47:40;1.70;;;0.60;;
16440;SDS011;8330;-33.858;151.184;2022-12-07T11:50:26;1.40;;;0.73;;
16440;SDS011;8330;-33.858;151.184;2022-12-07T11:53:02;3.90;;;0.77;;
16440;SDS011;8330;-33.858;151.184;2022-12-07T11:55:41;1.25;;;0.50;;
16440;SDS011;8330;-33.858;151.184;2022-12-07T11:58:20;1.10;;;0.60;;
16440;SDS011;8330;-33.858;151.184;2022-12-07T12:01:08;1.45;;;0.80;;
16440;SDS011;8330;-33.858;151.184;2022-12-07T12:03:49;1.17;;;0.50;;
16440;SDS011;8330;-33.858;151.184;2022-12-07T12:06:21;1.13;;;0.50;;
16440;SDS011;8330;-33.858;151.184;2022-12-07T12:08:53;0.75;;;0.60;;
16440;SDS011;8330;-33.858;151.184;2022-12-07T12:11:34;2.13;;;0.60;;
16440;SDS011;8330;-33.858;151.184;2022-12-07T12:14:20;1.13;;;0.55;;
16440;SDS011;8330;-33.858;151.184;2022-12-07T12:17:10;0.80;;;0.60;;
16440;SDS011;8330;-33.858;151.184;2022-12-07T12:19:58;1.10;;;0.60;;
16440;SDS011;8330;-33.858;151.184;2022-12-07T12:22:34;1.02;;;0.57;;
16440;SDS011;8330;-33.858;151.184;2022-12-07T12:25:14;1.77;;;0.63;;
16440;SDS011;8330;-33.858;151.184;2022-12-07T12:27:50;1.85;;;0.68;;
16440;SDS011;8330;-33.858;151.184;2022-12-07T12:30:26;1.13;;;0.70;;
16440;SDS011;8330;-33.858;151.184;2022-12-07T12:33:04;1.20;;;0.60;;
16440;SDS011;8330;-33.858;151.184;2022-12-07T12:35:42;1.13;;;0.70;;
16440;SDS011;8330;-33.858;151.184;2022-12-07T12:47:43;1.13;;;0.50;;
16440;SDS011;8330;-33.858;151.184;2022-12-07T12:50:29;2.40;;;0.70;;
16440;SDS011;8330;-33.858;151.184;2022-12-07T12:53:02;2.20;;;0.65;;
16440;SDS011;8330;-33.858;151.184;2022-12-07T13:01:51;1.30;;;0.60;;
16440;SDS011;8330;-33.858;151.184;2022-12-07T13:10:38;1.20;;;0.73;;
16440;SDS011;8330;-33.858;151.184;2022-12-07T13:13:31;0.63;;;0.50;;
16440;SDS011;8330;-33.858;151.184;2022-12-07T13:25:30;2.75;;;0.60;;
16440;SDS011;8330;-33.858;151.184;2022-12-07T13:28:15;1.05;;;0.40;;
16440;SDS011;8330;-33.858;151.184;2022-12-07T13:30:50;0.52;;;0.40;;
16440;SDS011;8330;-33.858;151.184;2022-12-07T13:33:43;2.28;;;0.70;;
16440;SDS011;8330;-33.858;151.184;2022-12-07T13:36:18;0.60;;;0.45;;
16440;SDS011;8330;-33.858;151.184;2022-12-07T13:38:52;0.40;;;0.40;;
16440;SDS011;8330;-33.858;151.184;2022-12-07T13:41:26;0.73;;;0.30;;
16440;SDS011;8330;-33.858;151.184;2022-12-07T13:44:02;1.75;;;0.65;;
16440;SDS011;8330;-33.858;151.184;2022-12-07T13:49:29;0.73;;;0.57;;
16440;SDS011;8330;-33.858;151.184;2022-12-07T13:52:12;1.83;;;0.40;;
16440;SDS011;8330;-33.858;151.184;2022-12-07T13:54:46;1.55;;;0.57;;
16440;SDS011;8330;-33.858;151.184;2022-12-07T13:57:19;2.40;;;0.60;;
16440;SDS011;8330;-33.858;151.184;2022-12-07T13:59:51;1.42;;;0.60;;
16440;SDS011;8330;-33.858;151.184;2022-12-07T14:02:24;1.02;;;0.60;;
16440;SDS011;8330;-33.858;151.184;2022-12-07T14:05:06;1.50;;;0.60;;
16440;SDS011;8330;-33.858;151.184;2022-12-07T14:07:48;1.60;;;0.70;;
16440;SDS011;8330;-33.858;151.184;2022-12-07T14:10:23;2.38;;;0.60;;
16440;SDS011;8330;-33.858;151.184;2022-12-07T14:12:57;3.30;;;0.70;;
16440;SDS011;8330;-33.858;151.184;2022-12-07T14:15:29;2.55;;;0.65;;
16440;SDS011;8330;-33.858;151.184;2022-12-07T14:18:01;1.05;;;0.60;;
16440;SDS011;8330;-33.858;151.184;2022-12-07T14:20:33;2.42;;;0.70;;
16440;SDS011;8330;-33.858;151.184;2022-12-07T14:23:05;1.08;;;0.57;;
16440;SDS011;8330;-33.858;151.184;2022-12-07T14:25:52;3.42;;;0.75;;
16440;SDS011;8330;-33.858;151.184;2022-12-07T14:28:36;1.65;;;0.60;;
16440;SDS011;8330;-33.858;151.184;2022-12-07T14:31:09;3.53;;;0.70;;
16440;SDS011;8330;-33.858;151.184;2022-12-07T14:33:42;1.15;;;0.45;;
16440;SDS011;8330;-33.858;151.184;2022-12-07T14:36:13;2.20;;;0.63;;
16440;SDS011;8330;-33.858;151.184;2022-12-07T14:38:44;1.63;;;0.47;;
16440;SDS011;8330;-33.858;151.184;2022-12-07T14:41:15;1.17;;;0.50;;
16440;SDS011;8330;-33.858;151.184;2022-12-07T14:44:16;2.20;;;0.63;;
16440;SDS011;8330;-33.858;151.184;2022-12-07T14:46:48;1.67;;;0.82;;
16440;SDS011;8330;-33.858;151.184;2022-12-07T14:49:20;1.73;;;0.60;;
16440;SDS011;8330;-33.858;151.184;2022-12-07T14:51:51;1.48;;;0.50;;
16440;SDS011;8330;-33.858;151.184;2022-12-07T14:54:30;0.93;;;0.50;;
16440;SDS011;8330;-33.858;151.184;2022-12-07T14:57:01;1.67;;;0.70;;
16440;SDS011;8330;-33.858;151.184;2022-12-07T14:59:34;0.80;;;0.40;;
16440;SDS011;8330;-33.858;151.184;2022-12-07T15:02:05;2.90;;;0.57;;
16440;SDS011;8330;-33.858;151.184;2022-12-07T15:04:40;1.10;;;0.55;;
16440;SDS011;8330;-33.858;151.184;2022-12-07T15:07:12;2.15;;;0.70;;
16440;SDS011;8330;-33.858;151.184;2022-12-07T15:09:47;1.27;;;0.40;;
16440;SDS011;8330;-33.858;151.184;2022-12-07T15:12:18;1.52;;;0.60;;
16440;SDS011;8330;-33.858;151.184;2022-12-07T15:14:52;1.38;;;0.60;;
16440;SDS011;8330;-33.858;151.184;2022-12-07T15:17:23;3.47;;;0.70;;
16440;SDS011;8330;-33.858;151.184;2022-12-07T15:19:54;0.75;;;0.50;;
16440;SDS011;8330;-33.858;151.184;2022-12-07T15:22:25;0.95;;;0.60;;
16440;SDS011;8330;-33.858;151.184;2022-12-07T15:24:57;1.42;;;0.70;;
16440;SDS011;8330;-33.858;151.184;2022-12-07T15:27:28;1.27;;;0.60;;
16440;SDS011;8330;-33.858;151.184;2022-12-07T15:30:02;2.88;;;0.82;;
16440;SDS011;8330;-33.858;151.184;2022-12-07T15:32:34;1.20;;;0.60;;
16440;SDS011;8330;-33.858;151.184;2022-12-07T15:35:05;1.95;;;0.73;;
16440;SDS011;8330;-33.858;151.184;2022-12-07T15:37:36;1.27;;;0.57;;
16440;SDS011;8330;-33.858;151.184;2022-12-07T15:40:08;1.98;;;0.60;;
16440;SDS011;8330;-33.858;151.184;2022-12-07T15:42:39;1.27;;;0.80;;
16440;SDS011;8330;-33.858;151.184;2022-12-07T15:45:12;2.25;;;0.60;;
16440;SDS011;8330;-33.858;151.184;2022-12-07T15:47:41;0.68;;;0.52;;
16440;SDS011;8330;-33.858;151.184;2022-12-07T15:50:13;2.88;;;0.70;;